Time;durP1;ratioP1;P1;durP2;ratioP2;P2;SDS_P1;SDS_P2;PMS_P1;PMS_P2;Temp;Humidity;BMP_temperature;BMP_pressure;BME280_temperature;BME280_humidity;BME280_pressure;Samples;Min_cycle;Max_cycle;Signal;HPM_P1;HPM_P2
2022/01/27 00:00:29;;;;;;;58.20;25.50;;;3.70;99.90;;;;;;5066862;28;20071;-44
2022/01/27 00:03:13;;;;;;;51.42;23.80;;;3.80;99.90;;;;;;5064849;28;20462;-45
2022/01/27 00:05:45;;;;;;;55.90;25.63;;;3.80;99.90;;;;;;5074137;28;20066;-45
2022/01/27 00:08:15;;;;;;;53.83;24.50;;;3.80;99.90;;;;;;5082069;28;20028;-47
2022/01/27 00:10:55;;;;;;;56.72;25.00;;;3.70;99.90;;;;;;5086079;28;20025;-44
2022/01/27 00:13:28;;;;;;;58.17;26.40;;;3.70;99.90;;;;;;5074962;28;20473;-45
2022/01/27 00:16:13;;;;;;;59.85;26.08;;;3.70;99.90;;;;;;5083446;28;20020;-45
2022/01/27 00:18:39;;;;;;;59.28;26.35;;;3.70;99.90;;;;;;5080285;28;20028;-42
2022/01/27 00:21:05;;;;;;;54.03;23.90;;;3.70;99.90;;;;;;5085456;28;20016;-42
2022/01/27 00:23:31;;;;;;;51.40;24.08;;;3.70;99.90;;;;;;5081911;28;20492;-43
2022/01/27 00:25:56;;;;;;;47.58;23.15;;;3.70;99.90;;;;;;5090065;28;20047;-41
2022/01/27 00:28:22;;;;;;;46.53;21.65;;;3.80;99.90;;;;;;5077763;28;20075;-41
2022/01/27 00:30:48;;;;;;;47.30;22.25;;;3.70;99.90;;;;;;5085999;28;20020;-42
2022/01/27 00:33:14;;;;;;;46.60;21.80;;;3.80;99.90;;;;;;5085731;28;20028;-42
2022/01/27 00:35:39;;;;;;;49.58;21.27;;;3.70;99.90;;;;;;5084230;28;20024;-43
2022/01/27 00:38:05;;;;;;;45.80;20.75;;;3.80;99.90;;;;;;5089719;28;20124;-42
2022/01/27 00:40:31;;;;;;;41.75;20.35;;;3.80;99.90;;;;;;5085686;28;20370;-42
2022/01/27 00:42:57;;;;;;;45.25;20.58;;;3.80;99.90;;;;;;5078733;28;20473;-41
2022/01/27 00:45:24;;;;;;;44.60;18.40;;;3.90;99.90;;;;;;5090164;28;20028;-41
2022/01/27 00:47:49;;;;;;;35.63;19.55;;;3.90;99.90;;;;;;5083933;28;20104;-42
2022/01/27 00:50:17;;;;;;;38.83;18.75;;;3.90;99.90;;;;;;5081561;28;20082;-41
2022/01/27 00:52:48;;;;;;;33.22;17.63;;;3.90;99.90;;;;;;5089896;28;20028;-41
2022/01/27 00:55:15;;;;;;;34.20;17.73;;;4.00;99.90;;;;;;5086337;28;20135;-41
2022/01/27 00:58:00;;;;;;;36.10;18.30;;;4.00;99.90;;;;;;5077360;28;20055;-42
2022/01/27 01:00:41;;;;;;;34.22;17.30;;;4.00;99.90;;;;;;5052806;28;20023;-41
2022/01/27 01:08:38;;;;;;;35.42;16.52;;;4.00;99.90;;;;;;5081129;28;20077;-42
2022/01/27 01:16:08;;;;;;;32.25;17.08;;;4.00;99.90;;;;;;5081278;28;20035;-42
2022/01/27 01:21:30;;;;;;;31.85;16.80;;;4.10;99.90;;;;;;5078232;28;20028;-41
2022/01/27 01:32:06;;;;;;;26.48;14.85;;;4.10;99.90;;;;;;5085402;28;20123;-41
2022/01/27 01:34:33;;;;;;;28.00;14.93;;;4.10;99.90;;;;;;5076442;28;20109;-41
2022/01/27 01:37:04;;;;;;;31.15;15.05;;;4.10;99.90;;;;;;5080953;28;20112;-41
2022/01/27 01:39:33;;;;;;;26.92;14.82;;;4.10;99.90;;;;;;5079959;28;20016;-42
2022/01/27 01:42:00;;;;;;;36.03;15.35;;;4.10;99.90;;;;;;5082155;28;20405;-42
2022/01/27 01:44:27;;;;;;;29.52;14.15;;;4.20;99.90;;;;;;5080528;28;20020;-41
2022/01/27 01:46:53;;;;;;;28.52;15.00;;;4.20;99.90;;;;;;5088890;28;20161;-41
2022/01/27 01:49:22;;;;;;;27.90;13.75;;;4.10;99.90;;;;;;5078253;28;20032;-41
2022/01/27 01:51:48;;;;;;;29.20;14.02;;;4.20;99.90;;;;;;5083529;28;20031;-41
2022/01/27 01:54:14;;;;;;;29.38;14.35;;;4.20;99.90;;;;;;5084518;28;20017;-41
2022/01/27 01:56:41;;;;;;;26.10;14.07;;;4.20;99.90;;;;;;5077133;28;20021;-41
2022/01/27 01:59:08;;;;;;;31.17;15.00;;;4.20;99.90;;;;;;5084993;28;20084;-41
2022/01/27 02:01:35;;;;;;;28.65;12.60;;;4.20;99.90;;;;;;5084141;28;20020;-41
2022/01/27 02:04:05;;;;;;;28.52;13.85;;;4.10;99.90;;;;;;5071103;28;20044;-41
2022/01/27 02:06:36;;;;;;;;;;;4.20;99.90;;;;;;5073461;28;20095;-41
2022/01/27 02:09:18;;;;;;;26.35;13.40;;;4.20;99.90;;;;;;5079818;28;19904;-41
2022/01/27 02:19:58;;;;;;;30.90;14.70;;;4.30;99.90;;;;;;5085950;28;20031;-41
2022/01/27 02:22:24;;;;;;;27.48;14.55;;;4.20;99.90;;;;;;5081025;28;20462;-41
2022/01/27 02:24:50;;;;;;;28.73;13.35;;;4.30;99.90;;;;;;5084841;28;20028;-41
2022/01/27 02:27:18;;;;;;;28.80;15.10;;;4.20;99.90;;;;;;5079222;28;20020;-41
2022/01/27 02:29:46;;;;;;;33.45;14.82;;;4.20;99.90;;;;;;5080280;28;20190;-42
2022/01/27 02:32:14;;;;;;;27.48;14.20;;;4.30;99.90;;;;;;5088746;28;20027;-42
2022/01/27 02:34:41;;;;;;;25.33;14.02;;;4.30;99.90;;;;;;5076994;28;20067;-42
2022/01/27 02:37:07;;;;;;;30.15;14.77;;;4.30;99.90;;;;;;5076999;28;20157;-42
2022/01/27 02:39:33;;;;;;;31.23;14.45;;;4.20;99.90;;;;;;5048818;28;20022;-42
2022/01/27 02:42:19;;;;;;;27.30;13.73;;;4.20;99.90;;;;;;5062079;28;20025;-42
2022/01/27 02:44:53;;;;;;;27.08;15.00;;;4.20;99.90;;;;;;5061242;28;20051;-42
2022/01/27 02:47:20;;;;;;;27.65;13.07;;;4.20;99.90;;;;;;5057002;28;20276;-42
2022/01/27 02:49:46;;;;;;;28.10;14.88;;;4.20;99.90;;;;;;5058162;28;20246;-41
2022/01/27 02:52:13;;;;;;;28.42;15.55;;;4.20;99.90;;;;;;5086412;28;20485;-42
2022/01/27 02:54:38;;;;;;;28.65;15.15;;;4.20;99.90;;;;;;5074588;28;20040;-41
2022/01/27 02:57:04;;;;;;;29.75;15.27;;;4.20;99.90;;;;;;5086295;28;20016;-41
2022/01/27 02:59:30;;;;;;;27.60;13.65;;;4.20;99.90;;;;;;5091524;28;20031;-41
2022/01/27 03:01:56;;;;;;;34.83;17.00;;;4.20;99.90;;;;;;5092186;28;20377;-41
2022/01/27 03:04:22;;;;;;;30.92;15.65;;;4.20;99.90;;;;;;5083173;28;20377;-41
2022/01/27 03:06:48;;;;;;;32.35;16.40;;;4.20;99.90;;;;;;5087894;28;20549;-41
2022/01/27 03:09:15;;;;;;;30.92;17.02;;;4.20;99.90;;;;;;5082507;28;20103;-41
2022/01/27 03:11:47;;;;;;;36.90;17.73;;;4.20;99.90;;;;;;5083572;28;20028;-41
2022/01/27 03:14:15;;;;;;;36.15;18.38;;;4.20;99.90;;;;;;5087284;28;20486;-41
2022/01/27 03:16:41;;;;;;;32.85;17.20;;;4.20;99.90;;;;;;5086684;28;20024;-41
2022/01/27 03:19:07;;;;;;;40.42;20.73;;;4.10;99.90;;;;;;5084705;28;20505;-41
2022/01/27 03:21:33;;;;;;;42.00;19.48;;;4.10;99.90;;;;;;5083325;28;20020;-41
2022/01/27 03:23:59;;;;;;;37.60;20.77;;;4.10;99.90;;;;;;5088138;28;20023;-41
2022/01/27 03:26:25;;;;;;;42.35;22.02;;;4.10;99.90;;;;;;5080101;28;20043;-41
2022/01/27 03:28:51;;;;;;;40.00;21.13;;;4.10;99.90;;;;;;5079175;28;20372;-41
2022/01/27 03:31:16;;;;;;;47.38;24.10;;;4.10;99.90;;;;;;5091636;28;20039;-41
2022/01/27 03:33:43;;;;;;;49.95;23.88;;;4.10;99.90;;;;;;5071067;28;20035;-41
2022/01/27 03:36:11;;;;;;;52.70;25.45;;;4.20;99.90;;;;;;5079524;28;20013;-41
2022/01/27 03:38:36;;;;;;;49.00;25.60;;;4.10;99.90;;;;;;5081268;28;20385;-41
2022/01/27 03:41:07;;;;;;;51.17;25.45;;;4.10;99.90;;;;;;5072615;28;20085;-41
2022/01/27 03:43:35;;;;;;;54.75;25.67;;;4.10;99.90;;;;;;5078427;28;20024;-41
2022/01/27 03:46:01;;;;;;;50.60;27.30;;;4.10;99.90;;;;;;5080297;28;20020;-41
2022/01/27 03:48:27;;;;;;;58.55;27.80;;;4.10;99.90;;;;;;5090794;28;20497;-41
2022/01/27 03:50:53;;;;;;;52.28;26.13;;;4.20;99.90;;;;;;5081953;28;20031;-41
2022/01/27 03:53:19;;;;;;;56.00;27.52;;;4.20;99.90;;;;;;5075182;28;20445;-41
2022/01/27 03:55:45;;;;;;;64.63;28.40;;;4.20;99.90;;;;;;5081100;28;20023;-42
2022/01/27 03:58:10;;;;;;;58.85;28.27;;;4.20;99.90;;;;;;5080906;28;20148;-42
2022/01/27 04:00:36;;;;;;;64.70;30.83;;;4.30;99.90;;;;;;5089957;28;20114;-41
2022/01/27 04:03:05;;;;;;;60.35;28.98;;;4.20;99.90;;;;;;5079413;28;20466;-42
2022/01/27 04:05:37;;;;;;;56.92;28.48;;;4.10;99.90;;;;;;5081519;28;20020;-42
2022/01/27 04:08:08;;;;;;;63.03;30.90;;;4.10;99.90;;;;;;5082281;28;20020;-42
2022/01/27 04:10:34;;;;;;;67.07;30.25;;;4.10;99.90;;;;;;5087644;28;20279;-42
2022/01/27 04:13:01;;;;;;;70.82;31.92;;;4.10;99.90;;;;;;5079072;28;20048;-42
2022/01/27 04:15:26;;;;;;;66.75;31.73;;;4.20;99.90;;;;;;5082288;28;20027;-42
2022/01/27 04:17:52;;;;;;;76.95;31.92;;;4.10;99.90;;;;;;5078250;28;20028;-42
2022/01/27 04:20:18;;;;;;;72.97;34.47;;;4.10;99.90;;;;;;5064838;28;20016;-42
2022/01/27 04:22:44;;;;;;;72.30;33.03;;;4.10;99.90;;;;;;5081523;28;20073;-42
2022/01/27 04:25:12;;;;;;;75.60;33.50;;;4.10;99.90;;;;;;5084243;28;20477;-42
2022/01/27 04:27:40;;;;;;;77.68;35.80;;;4.10;99.90;;;;;;5078448;28;20521;-42
2022/01/27 04:30:13;;;;;;;71.40;36.97;;;4.10;99.90;;;;;;5082618;28;20073;-42
2022/01/27 04:32:44;;;;;;;71.38;34.58;;;4.10;99.90;;;;;;5083412;28;20104;-42
2022/01/27 04:35:14;;;;;;;71.30;36.42;;;4.20;99.90;;;;;;5079118;28;20016;-41
2022/01/27 04:37:51;;;;;;;78.22;34.42;;;4.20;99.90;;;;;;5075353;28;20043;-41
2022/01/27 04:40:17;;;;;;;73.65;35.40;;;4.20;99.90;;;;;;5077982;28;20153;-41
2022/01/27 04:45:47;;;;;;;76.90;33.75;;;4.10;99.90;;;;;;5089601;28;20036;-42
2022/01/27 04:48:16;;;;;;;73.88;36.03;;;4.10;99.90;;;;;;5080632;28;20024;-41
2022/01/27 04:50:42;;;;;;;81.10;35.97;;;4.00;99.90;;;;;;5080294;28;20371;-41
2022/01/27 04:53:14;;;;;;;73.63;38.40;;;4.10;99.90;;;;;;5090167;28;20528;-42
2022/01/27 04:55:39;;;;;;;85.75;36.38;;;4.10;99.90;;;;;;5083039;28;20028;-42
2022/01/27 04:58:13;;;;;;;76.00;36.75;;;4.10;99.90;;;;;;5079327;28;20420;-42
2022/01/27 05:00:38;;;;;;;76.10;36.40;;;4.10;99.90;;;;;;5088884;28;20016;-42
2022/01/27 05:03:13;;;;;;;72.57;36.38;;;4.00;99.90;;;;;;5089998;28;20532;-42
2022/01/27 05:05:39;;;;;;;70.05;35.40;;;4.00;99.90;;;;;;5081462;28;20043;-42
2022/01/27 05:08:07;;;;;;;69.90;35.53;;;4.00;99.90;;;;;;5080769;28;20066;-42
2022/01/27 05:10:34;;;;;;;77.07;37.55;;;4.00;99.90;;;;;;5085527;28;20074;-41
2022/01/27 05:13:08;;;;;;;79.03;36.40;;;4.10;99.90;;;;;;5078991;28;20021;-41
2022/01/27 05:15:41;;;;;;;73.22;35.92;;;4.10;99.90;;;;;;5089623;28;20342;-41
2022/01/27 05:18:06;;;;;;;71.93;34.75;;;4.10;99.90;;;;;;5077696;28;20273;-41
2022/01/27 05:20:32;;;;;;;71.78;35.50;;;4.10;99.90;;;;;;5089312;28;20056;-41
2022/01/27 05:22:57;;;;;;;76.50;36.25;;;4.00;99.90;;;;;;5083523;28;20024;-41
2022/01/27 05:25:23;;;;;;;73.80;35.78;;;4.00;99.90;;;;;;5080389;28;20497;-42
2022/01/27 05:27:48;;;;;;;76.93;35.35;;;3.90;99.90;;;;;;5079182;28;20028;-41
2022/01/27 05:30:14;;;;;;;72.53;35.42;;;3.90;99.90;;;;;;5089305;28;20036;-42
2022/01/27 05:32:39;;;;;;;70.57;34.95;;;3.90;99.90;;;;;;5080192;28;20486;-42
2022/01/27 05:35:05;;;;;;;73.47;36.08;;;3.90;99.90;;;;;;5084189;28;20046;-41
2022/01/27 05:37:30;;;;;;;73.65;34.42;;;3.90;99.90;;;;;;5076827;28;20024;-41
2022/01/27 05:39:56;;;;;;;75.57;36.45;;;3.80;99.90;;;;;;5076043;28;20154;-41
2022/01/27 05:42:21;;;;;;;67.63;32.08;;;3.80;99.90;;;;;;5080651;28;20062;-41
2022/01/27 05:44:47;;;;;;;70.70;33.53;;;3.90;99.90;;;;;;5089231;28;20024;-42
2022/01/27 05:47:13;;;;;;;67.60;33.22;;;3.90;99.90;;;;;;5076871;28;20546;-43
2022/01/27 05:49:38;;;;;;;71.88;33.08;;;3.90;99.90;;;;;;5083104;28;20606;-42
2022/01/27 05:52:04;;;;;;;71.53;33.42;;;3.80;99.90;;;;;;5080213;28;20111;-42
2022/01/27 05:54:31;;;;;;;77.72;33.22;;;3.80;99.90;;;;;;5080687;28;20020;-42
2022/01/27 05:56:57;;;;;;;81.93;33.70;;;3.80;99.90;;;;;;5084054;28;20016;-42
2022/01/27 05:59:22;;;;;;;68.20;31.27;;;3.80;99.90;;;;;;5079960;28;20020;-41
2022/01/27 06:01:48;;;;;;;68.50;31.65;;;3.80;99.90;;;;;;5089026;28;20413;-41
2022/01/27 06:04:13;;;;;;;68.43;31.02;;;3.80;99.90;;;;;;5087661;28;20393;-42
2022/01/27 06:06:39;;;;;;;64.30;30.98;;;3.80;99.90;;;;;;5076768;28;20043;-41
2022/01/27 06:09:04;;;;;;;63.42;30.63;;;3.80;99.90;;;;;;5086492;28;20028;-42
2022/01/27 06:11:30;;;;;;;68.40;29.50;;;3.80;99.90;;;;;;5080960;28;20016;-42
2022/01/27 06:13:55;;;;;;;61.92;30.08;;;3.90;99.90;;;;;;5077132;28;20428;-42
2022/01/27 06:16:21;;;;;;;64.72;30.33;;;3.80;99.90;;;;;;5088910;28;20235;-42
2022/01/27 06:18:47;;;;;;;65.00;31.10;;;3.80;99.90;;;;;;5078473;28;20047;-42
2022/01/27 06:21:13;;;;;;;66.88;29.48;;;3.80;99.90;;;;;;5080002;28;20044;-41
2022/01/27 06:23:38;;;;;;;60.90;30.30;;;3.80;99.90;;;;;;5082893;28;20028;-41
2022/01/27 06:26:04;;;;;;;64.40;29.75;;;3.80;99.90;;;;;;5078374;28;20078;-41
2022/01/27 06:28:30;;;;;;;62.42;28.75;;;3.80;99.90;;;;;;5087809;28;20374;-41
2022/01/27 06:30:56;;;;;;;67.22;31.70;;;3.80;99.90;;;;;;5086351;28;20088;-41
2022/01/27 06:33:22;;;;;;;66.22;30.08;;;3.80;99.90;;;;;;5075453;28;20028;-41
2022/01/27 06:35:48;;;;;;;68.82;30.90;;;3.80;99.90;;;;;;5080081;28;20069;-41
2022/01/27 06:38:13;;;;;;;54.42;26.90;;;3.80;99.90;;;;;;5086338;28;20028;-41
2022/01/27 06:40:39;;;;;;;66.63;28.73;;;3.80;99.90;;;;;;5075436;28;20025;-41
2022/01/27 06:43:05;;;;;;;75.85;30.92;;;3.80;99.90;;;;;;5083973;28;20385;-41
2022/01/27 06:45:31;;;;;;;66.18;30.23;;;3.70;99.90;;;;;;5077990;28;20028;-41
2022/01/27 06:47:56;;;;;;;72.22;30.48;;;3.70;99.90;;;;;;5078710;28;20039;-42
2022/01/27 06:50:22;;;;;;;68.18;30.45;;;3.60;99.90;;;;;;5082034;28;20032;-42
2022/01/27 06:52:47;;;;;;;67.45;31.63;;;3.60;99.90;;;;;;5079298;28;20477;-42
2022/01/27 06:55:16;;;;;;;75.18;32.30;;;3.70;99.90;;;;;;5084600;28;20032;-42
2022/01/27 06:57:42;;;;;;;72.05;32.63;;;3.60;99.90;;;;;;5074312;28;20052;-41
2022/01/27 07:00:09;;;;;;;67.43;32.28;;;3.60;99.90;;;;;;5087353;28;20048;-42
2022/01/27 07:02:35;;;;;;;68.28;32.28;;;3.60;99.90;;;;;;5075209;28;20085;-42
2022/01/27 07:05:00;;;;;;;68.65;29.20;;;3.50;99.90;;;;;;5069131;28;20029;-42
2022/01/27 07:07:26;;;;;;;72.20;32.13;;;3.50;99.90;;;;;;5064123;28;20036;-42
2022/01/27 07:09:52;;;;;;;73.50;31.40;;;3.40;99.90;;;;;;5072116;28;20032;-42
2022/01/27 07:12:17;;;;;;;69.53;32.88;;;3.50;99.90;;;;;;5073056;28;20028;-42
2022/01/27 07:14:43;;;;;;;74.97;31.88;;;3.50;99.90;;;;;;5078914;28;20024;-42
2022/01/27 07:17:08;;;;;;;70.13;32.35;;;3.50;99.90;;;;;;5083109;28;20060;-42
2022/01/27 07:19:34;;;;;;;68.40;30.30;;;3.50;99.90;;;;;;5075933;28;20028;-42
2022/01/27 07:22:00;;;;;;;71.47;32.33;;;3.50;99.90;;;;;;5079539;28;20024;-42
2022/01/27 07:24:25;;;;;;;67.10;30.33;;;3.60;99.90;;;;;;5084475;28;20032;-42
2022/01/27 07:26:51;;;;;;;65.38;30.23;;;3.60;99.90;;;;;;5062051;28;20079;-42
2022/01/27 07:29:16;;;;;;;68.88;32.20;;;3.60;99.90;;;;;;5076475;28;20024;-42
2022/01/27 07:31:42;;;;;;;70.43;30.77;;;3.60;99.90;;;;;;5088062;28;20079;-42
2022/01/27 07:34:07;;;;;;;71.82;32.08;;;3.60;99.90;;;;;;5080016;28;20032;-42
2022/01/27 07:36:33;;;;;;;72.70;32.67;;;3.60;99.90;;;;;;5079496;28;20028;-42
2022/01/27 07:39:00;;;;;;;69.80;31.85;;;3.50;99.90;;;;;;5082481;28;20485;-41
2022/01/27 07:41:26;;;;;;;72.40;31.95;;;3.40;99.90;;;;;;5079364;28;20048;-41
2022/01/27 07:43:51;;;;;;;73.40;32.47;;;3.30;99.90;;;;;;5089041;28;20079;-41
2022/01/27 07:46:17;;;;;;;77.40;32.88;;;3.40;99.90;;;;;;5088250;28;20623;-42
2022/01/27 07:48:42;;;;;;;72.93;31.67;;;3.40;99.90;;;;;;5066381;28;20047;-41
2022/01/27 07:51:09;;;;;;;73.72;33.47;;;3.40;99.90;;;;;;5062156;28;20555;-42
2022/01/27 07:53:36;;;;;;;71.88;31.73;;;3.40;99.90;;;;;;5070964;28;20052;-42
2022/01/27 07:56:03;;;;;;;69.95;30.52;;;3.40;99.90;;;;;;5064897;28;20036;-42
2022/01/27 07:58:30;;;;;;;71.80;32.58;;;3.50;99.90;;;;;;5064057;28;20103;-42
2022/01/27 08:00:56;;;;;;;76.53;33.47;;;3.40;99.90;;;;;;5066294;28;20016;-42
2022/01/27 08:03:21;;;;;;;75.82;33.17;;;3.40;99.90;;;;;;5069492;28;20035;-42
2022/01/27 08:05:47;;;;;;;86.10;35.80;;;3.40;99.90;;;;;;5075999;28;20440;-41
2022/01/27 08:08:12;;;;;;;73.65;31.90;;;3.50;99.90;;;;;;5080807;28;20050;-42
2022/01/27 08:10:38;;;;;;;77.13;32.53;;;3.50;99.90;;;;;;5090210;28;20036;-42
2022/01/27 08:13:09;;;;;;;70.05;31.05;;;3.50;99.90;;;;;;5080364;28;20020;-42
2022/01/27 08:15:34;;;;;;;72.00;32.40;;;3.50;99.90;;;;;;5084094;28;20111;-42
2022/01/27 08:18:00;;;;;;;81.90;35.08;;;3.50;99.90;;;;;;5080707;28;20119;-42
2022/01/27 08:20:26;;;;;;;75.75;33.00;;;3.50;99.90;;;;;;5082699;28;20020;-43
2022/01/27 08:22:53;;;;;;;72.30;32.10;;;3.40;99.90;;;;;;5082814;28;20024;-42
2022/01/27 08:25:21;;;;;;;76.43;32.30;;;3.40;99.90;;;;;;5081681;28;20194;-42
2022/01/27 08:27:49;;;;;;;80.95;32.35;;;3.40;99.90;;;;;;5084282;28;20020;-42
2022/01/27 08:30:17;;;;;;;84.45;33.38;;;3.40;99.90;;;;;;5079662;28;20043;-42
2022/01/27 08:32:57;;;;;;;69.07;32.15;;;3.40;99.90;;;;;;5091869;28;20513;-42
2022/01/27 08:35:23;;;;;;;62.58;23.63;;;3.50;99.90;;;;;;5079372;28;20031;-42
2022/01/27 08:37:49;;;;;;;69.30;31.20;;;3.50;99.90;;;;;;5076707;28;20604;-41
2022/01/27 08:40:16;;;;;;;76.82;32.42;;;3.50;99.90;;;;;;5088577;28;20039;-41
2022/01/27 08:42:43;;;;;;;76.25;32.88;;;3.50;99.90;;;;;;5080927;28;20103;-41
2022/01/27 08:45:15;;;;;;;82.00;30.50;;;3.50;99.90;;;;;;5089050;28;20048;-41
2022/01/27 08:47:42;;;;;;;80.20;31.63;;;3.50;99.90;;;;;;5082691;28;20368;-41
2022/01/27 08:50:09;;;;;;;76.75;33.03;;;3.50;99.90;;;;;;5070125;28;20021;-41
2022/01/27 08:52:36;;;;;;;81.65;33.08;;;3.50;99.90;;;;;;5071943;28;20481;-42
2022/01/27 08:55:03;;;;;;;81.60;35.15;;;3.50;99.90;;;;;;5082833;28;20024;-41
2022/01/27 08:57:29;;;;;;;75.95;34.25;;;3.60;99.90;;;;;;5069955;28;20366;-42
2022/01/27 08:59:54;;;;;;;82.93;34.13;;;3.60;99.90;;;;;;5065451;28;20029;-42
2022/01/27 09:02:21;;;;;;;72.07;32.75;;;3.70;99.90;;;;;;5060504;28;20025;-43
2022/01/27 09:04:46;;;;;;;74.05;32.00;;;3.70;99.90;;;;;;5060885;28;20025;-42
2022/01/27 09:07:12;;;;;;;81.53;33.80;;;3.70;99.90;;;;;;5071675;28;20126;-42
2022/01/27 09:09:38;;;;;;;83.97;35.28;;;3.70;99.90;;;;;;5080904;28;20616;-43
2022/01/27 09:12:03;;;;;;;179.93;85.13;;;3.70;99.90;;;;;;5080513;28;20389;-42
2022/01/27 09:14:31;;;;;;;101.90;42.40;;;3.70;99.90;;;;;;5080082;28;20039;-43
2022/01/27 09:16:59;;;;;;;74.45;32.35;;;3.80;99.90;;;;;;5076536;28;20012;-42
2022/01/27 09:19:26;;;;;;;84.30;33.30;;;3.80;99.90;;;;;;5078638;28;20028;-42
2022/01/27 09:21:55;;;;;;;72.78;31.67;;;3.80;99.90;;;;;;5076647;28;20016;-42
2022/01/27 09:24:28;;;;;;;69.20;30.40;;;3.80;99.90;;;;;;5071583;28;20027;-41
2022/01/27 09:27:00;;;;;;;78.28;31.40;;;3.80;99.90;;;;;;5077062;28;20044;-42
2022/01/27 09:29:27;;;;;;;78.60;34.08;;;3.90;99.90;;;;;;5080418;28;20064;-42
2022/01/27 09:31:53;;;;;;;77.30;32.50;;;3.90;99.90;;;;;;5086533;28;20056;-41
2022/01/27 09:34:19;;;;;;;69.15;29.35;;;3.90;99.90;;;;;;5074128;28;20090;-42
2022/01/27 09:36:46;;;;;;;67.85;29.45;;;4.00;99.90;;;;;;5069221;28;20034;-42
2022/01/27 09:39:13;;;;;;;69.80;29.20;;;4.00;99.90;;;;;;5076251;28;20017;-41
2022/01/27 09:41:41;;;;;;;53.70;26.05;;;4.00;99.90;;;;;;5083895;28;20028;-41
2022/01/27 09:44:12;;;;;;;58.55;27.75;;;4.10;99.90;;;;;;5089317;28;20028;-42
2022/01/27 09:46:41;;;;;;;58.03;25.63;;;4.10;99.90;;;;;;5084797;28;20111;-42
2022/01/27 09:49:12;;;;;;;59.85;25.02;;;4.20;99.90;;;;;;5077391;28;20028;-42
2022/01/27 09:51:42;;;;;;;56.42;26.55;;;4.20;99.90;;;;;;5078480;28;20016;-42
2022/01/27 09:54:08;;;;;;;44.03;23.58;;;4.20;99.90;;;;;;5077575;28;20024;-42
2022/01/27 09:56:35;;;;;;;59.08;25.25;;;4.20;99.90;;;;;;5082653;28;20044;-41
2022/01/27 09:59:02;;;;;;;56.00;24.38;;;4.20;99.90;;;;;;5075691;28;20021;-42
2022/01/27 10:01:28;;;;;;;50.28;21.77;;;4.30;99.90;;;;;;5079317;28;20065;-41
2022/01/27 10:03:59;;;;;;;44.83;21.65;;;4.30;99.90;;;;;;5089091;28;20542;-41
2022/01/27 10:06:29;;;;;;;43.30;19.98;;;4.30;99.90;;;;;;5076839;28;20355;-42
2022/01/27 10:09:13;;;;;;;41.37;20.07;;;4.30;99.90;;;;;;5071284;28;20089;-41
2022/01/27 10:11:39;;;;;;;35.47;18.38;;;4.40;99.90;;;;;;5079983;28;20258;-41
2022/01/27 10:14:25;;;;;;;39.78;18.80;;;4.40;99.90;;;;;;5080337;28;20024;-41
2022/01/27 10:16:54;;;;;;;33.50;19.08;;;4.50;99.90;;;;;;5077774;28;20026;-42
2022/01/27 10:19:20;;;;;;;35.53;17.73;;;4.50;99.90;;;;;;5070318;28;20016;-41
2022/01/27 10:21:47;;;;;;;35.10;17.75;;;4.50;99.90;;;;;;5084146;28;20615;-41
2022/01/27 10:24:25;;;;;;;38.67;18.02;;;4.50;99.90;;;;;;5082054;28;20039;-41
2022/01/27 10:32:40;;;;;;;33.72;18.30;;;4.50;99.90;;;;;;5053877;28;20033;-42
2022/01/27 10:35:07;;;;;;;33.63;17.20;;;4.60;99.90;;;;;;5075715;28;20140;-41
2022/01/27 10:37:52;;;;;;;31.88;15.98;;;4.60;99.90;;;;;;5066760;28;20024;-42
2022/01/27 10:40:42;;;;;;;31.00;15.98;;;4.60;99.90;;;;;;5074648;28;20031;-42
2022/01/27 10:43:17;;;;;;;28.63;14.73;;;4.60;99.90;;;;;;5062055;28;20032;-42
2022/01/27 10:46:15;;;;;;;26.80;14.63;;;4.60;99.90;;;;;;5067454;28;20064;-42
2022/01/27 10:48:49;;;;;;;28.92;15.70;;;4.60;99.90;;;;;;5065529;28;20100;-42
2022/01/27 10:51:22;;;;;;;27.08;15.55;;;4.60;99.90;;;;;;5076984;28;20078;-42
2022/01/27 10:53:54;;;;;;;29.88;15.27;;;4.70;99.90;;;;;;5067658;28;20120;-41
2022/01/27 10:56:32;;;;;;;29.67;15.13;;;4.70;99.90;;;;;;5064597;28;20171;-41
2022/01/27 10:59:00;;;;;;;27.35;13.98;;;4.70;99.90;;;;;;5070959;28;20024;-42
2022/01/27 11:01:47;;;;;;;27.63;15.10;;;4.70;99.90;;;;;;5074650;28;20106;-41
2022/01/27 11:04:14;;;;;;;23.63;13.50;;;4.70;99.90;;;;;;5069582;28;20058;-41
2022/01/27 11:06:58;;;;;;;26.38;14.70;;;4.70;99.90;;;;;;5059581;28;20025;-41
2022/01/27 11:09:25;;;;;;;28.10;15.10;;;4.80;99.90;;;;;;5064689;28;20020;-41
2022/01/27 11:11:53;;;;;;;26.48;14.05;;;4.70;99.90;;;;;;5080538;28;20020;-42
2022/01/27 11:14:24;;;;;;;25.23;14.43;;;4.80;99.90;;;;;;5086477;28;20036;-41
2022/01/27 11:16:51;;;;;;;24.35;12.93;;;4.80;99.90;;;;;;5080638;28;20024;-42
2022/01/27 11:22:38;;;;;;;23.77;12.63;;;4.80;99.90;;;;;;5082304;28;20012;-42
2022/01/27 11:27:46;;;;;;;24.95;12.82;;;4.80;99.90;;;;;;5081676;28;20085;-41
2022/01/27 11:30:19;;;;;;;26.75;13.63;;;4.90;99.90;;;;;;5069088;28;20028;-41
2022/01/27 11:33:06;;;;;;;25.00;13.63;;;4.90;99.90;;;;;;5061253;28;20025;-42
2022/01/27 11:35:32;;;;;;;23.75;12.82;;;4.90;99.90;;;;;;5063305;28;20036;-41
2022/01/27 11:38:01;;;;;;;24.90;12.93;;;4.90;99.90;;;;;;5066077;28;20466;-42
2022/01/27 11:40:46;;;;;;;22.20;13.13;;;5.00;99.90;;;;;;5061302;28;20036;-41
2022/01/27 11:43:13;;;;;;;22.63;13.20;;;5.00;99.90;;;;;;5062217;28;20017;-42
2022/01/27 11:45:43;;;;;;;23.77;13.38;;;5.00;99.90;;;;;;5061129;28;20423;-41
2022/01/27 11:48:25;;;;;;;21.70;14.03;;;5.00;99.90;;;;;;5062132;28;20591;-42
2022/01/27 11:51:13;;;;;;;27.38;13.95;;;5.00;99.90;;;;;;5059078;28;20031;-42
2022/01/27 11:53:51;;;;;;;21.95;13.18;;;5.00;99.90;;;;;;5063441;28;20470;-42
2022/01/27 11:56:30;;;;;;;25.65;13.30;;;5.10;99.90;;;;;;5060939;28;20120;-42
2022/01/27 11:58:57;;;;;;;24.30;14.40;;;5.10;99.90;;;;;;5077090;28;20115;-42
2022/01/27 12:01:25;;;;;;;23.73;13.10;;;5.10;99.90;;;;;;5075266;28;20039;-41
2022/01/27 12:04:02;;;;;;;23.52;14.75;;;5.10;99.90;;;;;;5083285;28;20431;-42
2022/01/27 12:06:32;;;;;;;31.75;15.75;;;5.10;99.90;;;;;;5088029;28;20111;-42
2022/01/27 12:09:27;;;;;;;26.95;15.75;;;5.20;99.90;;;;;;5079669;28;20029;-42
2022/01/27 12:11:58;;;;;;;32.80;16.13;;;5.20;99.90;;;;;;5089270;28;20050;-42
2022/01/27 12:14:34;;;;;;;32.88;16.98;;;5.20;99.90;;;;;;5066317;28;20029;-43
2022/01/27 12:17:08;;;;;;;27.55;16.33;;;5.30;99.90;;;;;;5064988;28;20532;-42
2022/01/27 12:19:52;;;;;;;28.50;15.95;;;5.30;99.90;;;;;;5064762;28;20090;-43
2022/01/27 12:22:19;;;;;;;31.58;16.88;;;5.30;99.90;;;;;;5061420;28;20048;-43
2022/01/27 12:25:10;;;;;;;26.50;15.43;;;5.40;99.90;;;;;;5069581;28;20028;-43
2022/01/27 12:27:37;;;;;;;27.40;16.60;;;5.40;99.90;;;;;;5069235;28;20259;-43
2022/01/27 12:30:06;;;;;;;28.48;15.82;;;5.50;99.90;;;;;;5068012;28;20031;-42
2022/01/27 12:32:33;;;;;;;28.42;15.85;;;5.50;99.90;;;;;;5063696;28;20107;-42
2022/01/27 12:35:07;;;;;;;28.83;16.90;;;5.50;99.90;;;;;;5059837;28;20029;-42
2022/01/27 12:37:38;;;;;;;27.98;15.70;;;5.50;99.90;;;;;;5075438;28;20486;-42
2022/01/27 12:40:17;;;;;;;26.23;14.68;;;5.50;99.90;;;;;;5088867;28;20032;-43
2022/01/27 12:42:58;;;;;;;23.05;13.35;;;5.60;99.90;;;;;;5085906;28;20023;-43
2022/01/27 12:45:29;;;;;;;29.55;14.55;;;5.60;99.90;;;;;;5075588;28;20353;-42
2022/01/27 12:47:56;;;;;;;23.20;14.57;;;5.60;99.90;;;;;;5089245;28;20023;-42
2022/01/27 12:50:23;;;;;;;21.88;13.82;;;5.70;99.90;;;;;;5060416;28;20091;-42
2022/01/27 12:52:53;;;;;;;26.10;14.40;;;5.60;99.90;;;;;;5063029;28;20066;-43
2022/01/27 12:55:22;;;;;;;23.05;13.18;;;5.70;99.90;;;;;;5061100;28;20362;-42
2022/01/27 12:57:54;;;;;;;23.83;14.00;;;5.70;99.90;;;;;;5063842;28;20021;-41
2022/01/27 13:00:19;;;;;;;26.25;13.52;;;5.70;99.90;;;;;;5058227;28;20017;-42
2022/01/27 13:02:45;;;;;;;26.90;15.43;;;5.70;99.90;;;;;;5076194;28;20032;-41
2022/01/27 13:05:10;;;;;;;31.15;15.98;;;5.80;99.90;;;;;;5073289;28;20035;-42
2022/01/27 13:07:37;;;;;;;24.05;15.52;;;5.70;99.90;;;;;;5072885;28;20063;-41
2022/01/27 13:10:12;;;;;;;34.50;15.90;;;5.70;99.90;;;;;;5059656;28;20021;-42
2022/01/27 13:15:15;;;;;;;27.10;15.50;;;5.80;99.90;;;;;;5068131;28;20036;-42
2022/01/27 13:17:44;;;;;;;23.63;14.70;;;5.80;99.90;;;;;;5071072;28;20017;-42
2022/01/27 13:20:20;;;;;;;33.10;17.37;;;5.80;99.90;;;;;;5078883;28;20035;-42
2022/01/27 13:22:58;;;;;;;25.90;15.65;;;5.90;99.90;;;;;;5067902;28;20020;-41
2022/01/27 13:25:46;;;;;;;26.70;14.70;;;5.90;99.90;;;;;;5069806;28;20112;-42
2022/01/27 13:28:18;;;;;;;26.35;15.50;;;5.90;99.90;;;;;;5070193;28;20084;-43
2022/01/27 13:30:44;;;;;;;26.80;15.43;;;5.90;99.90;;;;;;5085657;28;20037;-42
2022/01/27 13:33:15;;;;;;;31.08;15.88;;;5.90;99.90;;;;;;5069277;28;20537;-41